sensor_id;sensor_type;location;lat;lon;timestamp;P1;durP1;ratioP1;P2;durP2;ratioP2
77089;SDS011;66028;53.558;9.950;2023-12-04T00:00:00;19.55;;;9.43;;
77089;SDS011;66028;53.558;9.950;2023-12-04T00:02:25;25.30;;;11.35;;
77089;SDS011;66028;53.558;9.950;2023-12-04T00:04:51;17.50;;;9.70;;
77089;SDS011;66028;53.558;9.950;2023-12-04T00:07:16;25.10;;;10.30;;
77089;SDS011;66028;53.558;9.950;2023-12-04T00:09:41;20.83;;;9.70;;
77089;SDS011;66028;53.558;9.950;2023-12-04T00:12:07;23.90;;;12.17;;
77089;SDS011;66028;53.558;9.950;2023-12-04T00:14:32;24.52;;;10.40;;
77089;SDS011;66028;53.558;9.950;2023-12-04T00:16:57;23.57;;;9.90;;
77089;SDS011;66028;53.558;9.950;2023-12-04T00:19:23;21.90;;;10.70;;
77089;SDS011;66028;53.558;9.950;2023-12-04T00:21:48;23.97;;;9.70;;
77089;SDS011;66028;53.558;9.950;2023-12-04T00:24:13;25.77;;;10.43;;
77089;SDS011;66028;53.558;9.950;2023-12-04T00:26:38;22.80;;;10.57;;
77089;SDS011;66028;53.558;9.950;2023-12-04T00:29:04;24.40;;;9.83;;
77089;SDS011;66028;53.558;9.950;2023-12-04T00:31:29;24.43;;;9.70;;
77089;SDS011;66028;53.558;9.950;2023-12-04T00:33:56;21.42;;;9.73;;
77089;SDS011;66028;53.558;9.950;2023-12-04T00:36:21;20.27;;;10.27;;
77089;SDS011;66028;53.558;9.950;2023-12-04T00:38:46;21.63;;;8.90;;
77089;SDS011;66028;53.558;9.950;2023-12-04T00:41:12;19.73;;;9.73;;
77089;SDS011;66028;53.558;9.950;2023-12-04T00:43:37;21.20;;;10.43;;
77089;SDS011;66028;53.558;9.950;2023-12-04T00:46:03;21.37;;;9.20;;
77089;SDS011;66028;53.558;9.950;2023-12-04T00:48:28;23.75;;;10.38;;
77089;SDS011;66028;53.558;9.950;2023-12-04T00:50:54;23.27;;;10.40;;
77089;SDS011;66028;53.558;9.950;2023-12-04T00:53:19;22.27;;;10.70;;
77089;SDS011;66028;53.558;9.950;2023-12-04T00:55:45;22.57;;;10.97;;
77089;SDS011;66028;53.558;9.950;2023-12-04T00:58:10;21.33;;;9.77;;
77089;SDS011;66028;53.558;9.950;2023-12-04T01:00:35;24.27;;;10.23;;
77089;SDS011;66028;53.558;9.950;2023-12-04T01:03:00;24.67;;;9.83;;
77089;SDS011;66028;53.558;9.950;2023-12-04T01:05:26;22.90;;;10.20;;
77089;SDS011;66028;53.558;9.950;2023-12-04T01:07:52;21.10;;;10.60;;
77089;SDS011;66028;53.558;9.950;2023-12-04T01:10:17;21.67;;;9.25;;
77089;SDS011;66028;53.558;9.950;2023-12-04T01:12:42;18.53;;;9.80;;
77089;SDS011;66028;53.558;9.950;2023-12-04T01:15:08;23.23;;;8.70;;
77089;SDS011;66028;53.558;9.950;2023-12-04T01:17:34;23.52;;;10.05;;
77089;SDS011;66028;53.558;9.950;2023-12-04T01:19:59;19.77;;;10.07;;
77089;SDS011;66028;53.558;9.950;2023-12-04T01:22:25;21.20;;;10.07;;
77089;SDS011;66028;53.558;9.950;2023-12-04T01:24:50;22.93;;;11.07;;
77089;SDS011;66028;53.558;9.950;2023-12-04T01:27:15;22.50;;;10.00;;
77089;SDS011;66028;53.558;9.950;2023-12-04T01:29:40;22.43;;;11.07;;
77089;SDS011;66028;53.558;9.950;2023-12-04T01:32:06;24.53;;;10.97;;
77089;SDS011;66028;53.558;9.950;2023-12-04T01:34:31;17.80;;;8.00;;
77089;SDS011;66028;53.558;9.950;2023-12-04T01:36:56;20.70;;;9.80;;
77089;SDS011;66028;53.558;9.950;2023-12-04T01:39:21;20.70;;;9.53;;
77089;SDS011;66028;53.558;9.950;2023-12-04T01:41:47;22.23;;;9.90;;
77089;SDS011;66028;53.558;9.950;2023-12-04T01:44:13;22.25;;;9.27;;
77089;SDS011;66028;53.558;9.950;2023-12-04T01:46:38;22.50;;;9.83;;
77089;SDS011;66028;53.558;9.950;2023-12-04T01:49:03;24.33;;;11.68;;
77089;SDS011;66028;53.558;9.950;2023-12-04T01:51:29;17.77;;;8.73;;
77089;SDS011;66028;53.558;9.950;2023-12-04T01:53:55;20.05;;;9.73;;
77089;SDS011;66028;53.558;9.950;2023-12-04T01:56:24;18.42;;;8.85;;
77089;SDS011;66028;53.558;9.950;2023-12-04T01:58:49;19.65;;;9.73;;
77089;SDS011;66028;53.558;9.950;2023-12-04T02:01:14;19.40;;;8.83;;
77089;SDS011;66028;53.558;9.950;2023-12-04T02:03:40;16.00;;;8.82;;
77089;SDS011;66028;53.558;9.950;2023-12-04T02:06:07;18.55;;;9.38;;
77089;SDS011;66028;53.558;9.950;2023-12-04T02:08:34;20.13;;;9.13;;
77089;SDS011;66028;53.558;9.950;2023-12-04T02:11:00;17.33;;;9.48;;
77089;SDS011;66028;53.558;9.950;2023-12-04T02:13:25;18.10;;;8.67;;
77089;SDS011;66028;53.558;9.950;2023-12-04T02:15:52;18.38;;;9.27;;
77089;SDS011;66028;53.558;9.950;2023-12-04T02:18:19;20.63;;;10.45;;
77089;SDS011;66028;53.558;9.950;2023-12-04T02:20:45;22.65;;;9.18;;
77089;SDS011;66028;53.558;9.950;2023-12-04T02:23:10;18.93;;;9.63;;
77089;SDS011;66028;53.558;9.950;2023-12-04T02:25:36;22.60;;;8.83;;
77089;SDS011;66028;53.558;9.950;2023-12-04T02:28:02;18.73;;;8.15;;
77089;SDS011;66028;53.558;9.950;2023-12-04T02:30:30;21.55;;;8.77;;
77089;SDS011;66028;53.558;9.950;2023-12-04T02:32:57;19.92;;;7.75;;
77089;SDS011;66028;53.558;9.950;2023-12-04T02:35:24;20.48;;;10.10;;
77089;SDS011;66028;53.558;9.950;2023-12-04T02:37:54;20.08;;;9.18;;
77089;SDS011;66028;53.558;9.950;2023-12-04T02:40:20;20.90;;;8.40;;
77089;SDS011;66028;53.558;9.950;2023-12-04T02:42:46;16.97;;;8.67;;
77089;SDS011;66028;53.558;9.950;2023-12-04T02:45:11;17.20;;;7.90;;
77089;SDS011;66028;53.558;9.950;2023-12-04T02:47:36;23.17;;;9.97;;
77089;SDS011;66028;53.558;9.950;2023-12-04T02:50:01;16.13;;;8.23;;
77089;SDS011;66028;53.558;9.950;2023-12-04T02:52:27;20.17;;;8.82;;
77089;SDS011;66028;53.558;9.950;2023-12-04T02:54:52;23.00;;;8.30;;
77089;SDS011;66028;53.558;9.950;2023-12-04T02:57:17;17.23;;;8.03;;
77089;SDS011;66028;53.558;9.950;2023-12-04T02:59:43;16.10;;;7.30;;
77089;SDS011;66028;53.558;9.950;2023-12-04T03:02:08;19.07;;;8.53;;
77089;SDS011;66028;53.558;9.950;2023-12-04T03:04:34;25.57;;;9.37;;
77089;SDS011;66028;53.558;9.950;2023-12-04T03:06:59;22.48;;;8.48;;
77089;SDS011;66028;53.558;9.950;2023-12-04T03:09:25;17.27;;;8.52;;
77089;SDS011;66028;53.558;9.950;2023-12-04T03:11:50;21.47;;;9.27;;
77089;SDS011;66028;53.558;9.950;2023-12-04T03:14:15;14.50;;;7.70;;
77089;SDS011;66028;53.558;9.950;2023-12-04T03:16:41;23.43;;;10.30;;
77089;SDS011;66028;53.558;9.950;2023-12-04T03:19:06;20.17;;;8.63;;
77089;SDS011;66028;53.558;9.950;2023-12-04T03:21:31;22.67;;;7.70;;
77089;SDS011;66028;53.558;9.950;2023-12-04T03:23:57;18.02;;;8.77;;
77089;SDS011;66028;53.558;9.950;2023-12-04T03:26:22;23.83;;;9.95;;
77089;SDS011;66028;53.558;9.950;2023-12-04T03:28:47;14.97;;;7.50;;
77089;SDS011;66028;53.558;9.950;2023-12-04T03:31:13;12.90;;;6.47;;
77089;SDS011;66028;53.558;9.950;2023-12-04T03:33:38;21.37;;;9.73;;
77089;SDS011;66028;53.558;9.950;2023-12-04T03:36:03;20.53;;;9.33;;
77089;SDS011;66028;53.558;9.950;2023-12-04T03:38:29;17.90;;;7.53;;
77089;SDS011;66028;53.558;9.950;2023-12-04T03:40:54;17.13;;;9.70;;
77089;SDS011;66028;53.558;9.950;2023-12-04T03:43:20;19.80;;;9.00;;
77089;SDS011;66028;53.558;9.950;2023-12-04T03:45:45;17.93;;;8.10;;
77089;SDS011;66028;53.558;9.950;2023-12-04T03:48:10;21.03;;;7.87;;
77089;SDS011;66028;53.558;9.950;2023-12-04T03:50:36;21.83;;;9.30;;
77089;SDS011;66028;53.558;9.950;2023-12-04T03:53:01;16.17;;;8.53;;
77089;SDS011;66028;53.558;9.950;2023-12-04T03:55:26;14.57;;;7.87;;
77089;SDS011;66028;53.558;9.950;2023-12-04T03:57:52;17.93;;;8.67;;
77089;SDS011;66028;53.558;9.950;2023-12-04T04:00:18;17.58;;;7.53;;
77089;SDS011;66028;53.558;9.950;2023-12-04T04:02:43;16.00;;;8.20;;
77089;SDS011;66028;53.558;9.950;2023-12-04T04:05:08;20.45;;;9.25;;
77089;SDS011;66028;53.558;9.950;2023-12-04T04:07:34;18.40;;;7.67;;
77089;SDS011;66028;53.558;9.950;2023-12-04T04:09:59;17.50;;;7.23;;
77089;SDS011;66028;53.558;9.950;2023-12-04T04:12:25;21.13;;;8.50;;
77089;SDS011;66028;53.558;9.950;2023-12-04T04:14:50;16.92;;;8.25;;
77089;SDS011;66028;53.558;9.950;2023-12-04T04:17:16;22.33;;;9.03;;
77089;SDS011;66028;53.558;9.950;2023-12-04T04:19:41;14.57;;;6.60;;
77089;SDS011;66028;53.558;9.950;2023-12-04T04:22:06;18.27;;;8.30;;
77089;SDS011;66028;53.558;9.950;2023-12-04T04:24:32;18.45;;;7.55;;
77089;SDS011;66028;53.558;9.950;2023-12-04T04:26:57;21.67;;;7.60;;
77089;SDS011;66028;53.558;9.950;2023-12-04T04:29:22;16.97;;;7.63;;
77089;SDS011;66028;53.558;9.950;2023-12-04T04:31:47;17.43;;;7.40;;
77089;SDS011;66028;53.558;9.950;2023-12-04T04:34:13;19.60;;;7.23;;
77089;SDS011;66028;53.558;9.950;2023-12-04T04:36:38;15.67;;;6.27;;
77089;SDS011;66028;53.558;9.950;2023-12-04T04:39:03;16.87;;;7.00;;
77089;SDS011;66028;53.558;9.950;2023-12-04T04:41:29;14.65;;;7.85;;
77089;SDS011;66028;53.558;9.950;2023-12-04T04:43:55;16.50;;;7.50;;
77089;SDS011;66028;53.558;9.950;2023-12-04T04:46:20;15.97;;;7.70;;
77089;SDS011;66028;53.558;9.950;2023-12-04T04:48:45;15.43;;;7.57;;
77089;SDS011;66028;53.558;9.950;2023-12-04T04:51:10;16.73;;;8.30;;
77089;SDS011;66028;53.558;9.950;2023-12-04T04:53:36;18.87;;;9.03;;
77089;SDS011;66028;53.558;9.950;2023-12-04T04:56:01;19.33;;;8.00;;
77089;SDS011;66028;53.558;9.950;2023-12-04T04:58:26;17.38;;;6.97;;
77089;SDS011;66028;53.558;9.950;2023-12-04T05:00:52;14.60;;;6.87;;
77089;SDS011;66028;53.558;9.950;2023-12-04T05:03:17;16.60;;;7.50;;
77089;SDS011;66028;53.558;9.950;2023-12-04T05:05:42;14.87;;;7.73;;
77089;SDS011;66028;53.558;9.950;2023-12-04T05:08:07;18.77;;;7.77;;
77089;SDS011;66028;53.558;9.950;2023-12-04T05:10:33;19.03;;;6.83;;
77089;SDS011;66028;53.558;9.950;2023-12-04T05:12:58;17.53;;;7.43;;
77089;SDS011;66028;53.558;9.950;2023-12-04T05:15:24;15.93;;;7.40;;
77089;SDS011;66028;53.558;9.950;2023-12-04T05:17:51;17.95;;;8.10;;
77089;SDS011;66028;53.558;9.950;2023-12-04T05:20:16;17.52;;;7.47;;
77089;SDS011;66028;53.558;9.950;2023-12-04T05:22:41;13.47;;;7.20;;
77089;SDS011;66028;53.558;9.950;2023-12-04T05:25:07;16.57;;;7.63;;
77089;SDS011;66028;53.558;9.950;2023-12-04T05:27:32;16.00;;;7.95;;
77089;SDS011;66028;53.558;9.950;2023-12-04T05:29:57;15.07;;;8.23;;
77089;SDS011;66028;53.558;9.950;2023-12-04T05:32:23;16.80;;;8.13;;
77089;SDS011;66028;53.558;9.950;2023-12-04T05:34:48;19.30;;;9.10;;
77089;SDS011;66028;53.558;9.950;2023-12-04T05:37:13;19.27;;;8.23;;
77089;SDS011;66028;53.558;9.950;2023-12-04T05:39:39;18.00;;;7.03;;
77089;SDS011;66028;53.558;9.950;2023-12-04T05:42:04;15.47;;;8.30;;
77089;SDS011;66028;53.558;9.950;2023-12-04T05:44:30;15.60;;;7.97;;
77089;SDS011;66028;53.558;9.950;2023-12-04T05:46:56;15.00;;;6.78;;
77089;SDS011;66028;53.558;9.950;2023-12-04T05:49:22;16.83;;;6.57;;
77089;SDS011;66028;53.558;9.950;2023-12-04T05:51:47;15.03;;;8.80;;
77089;SDS011;66028;53.558;9.950;2023-12-04T05:54:12;16.40;;;7.17;;
77089;SDS011;66028;53.558;9.950;2023-12-04T05:56:37;17.20;;;7.57;;
77089;SDS011;66028;53.558;9.950;2023-12-04T05:59:03;16.97;;;8.30;;
77089;SDS011;66028;53.558;9.950;2023-12-04T06:01:29;18.17;;;9.13;;
77089;SDS011;66028;53.558;9.950;2023-12-04T06:03:54;14.77;;;8.30;;
77089;SDS011;66028;53.558;9.950;2023-12-04T06:06:19;18.43;;;8.40;;
77089;SDS011;66028;53.558;9.950;2023-12-04T06:08:44;15.07;;;8.43;;
77089;SDS011;66028;53.558;9.950;2023-12-04T06:11:10;18.37;;;8.93;;
77089;SDS011;66028;53.558;9.950;2023-12-04T06:13:35;20.67;;;9.67;;
77089;SDS011;66028;53.558;9.950;2023-12-04T06:16:01;23.30;;;9.67;;
77089;SDS011;66028;53.558;9.950;2023-12-04T06:18:26;18.92;;;8.65;;
77089;SDS011;66028;53.558;9.950;2023-12-04T06:20:51;18.90;;;8.30;;
77089;SDS011;66028;53.558;9.950;2023-12-04T06:23:17;21.07;;;9.73;;
77089;SDS011;66028;53.558;9.950;2023-12-04T06:25:43;22.00;;;9.02;;
77089;SDS011;66028;53.558;9.950;2023-12-04T06:28:08;19.58;;;9.07;;
77089;SDS011;66028;53.558;9.950;2023-12-04T06:30:34;19.85;;;9.15;;
77089;SDS011;66028;53.558;9.950;2023-12-04T06:33:00;22.90;;;9.75;;
77089;SDS011;66028;53.558;9.950;2023-12-04T06:35:25;22.13;;;9.65;;
77089;SDS011;66028;53.558;9.950;2023-12-04T06:37:52;22.60;;;10.85;;
77089;SDS011;66028;53.558;9.950;2023-12-04T06:40:19;23.25;;;9.27;;
77089;SDS011;66028;53.558;9.950;2023-12-04T06:42:44;21.08;;;10.38;;
77089;SDS011;66028;53.558;9.950;2023-12-04T06:45:10;21.52;;;9.05;;
77089;SDS011;66028;53.558;9.950;2023-12-04T06:47:35;19.33;;;8.93;;
77089;SDS011;66028;53.558;9.950;2023-12-04T06:50:02;23.75;;;9.82;;
77089;SDS011;66028;53.558;9.950;2023-12-04T06:52:27;21.77;;;9.10;;
77089;SDS011;66028;53.558;9.950;2023-12-04T06:54:52;23.13;;;9.90;;
77089;SDS011;66028;53.558;9.950;2023-12-04T06:57:18;23.40;;;8.97;;
77089;SDS011;66028;53.558;9.950;2023-12-04T06:59:43;23.47;;;9.63;;
77089;SDS011;66028;53.558;9.950;2023-12-04T07:02:08;23.60;;;10.37;;
77089;SDS011;66028;53.558;9.950;2023-12-04T07:04:33;25.83;;;9.90;;
77089;SDS011;66028;53.558;9.950;2023-12-04T07:06:59;20.83;;;9.32;;
77089;SDS011;66028;53.558;9.950;2023-12-04T07:09:29;21.10;;;9.85;;
77089;SDS011;66028;53.558;9.950;2023-12-04T07:11:56;22.70;;;10.50;;
77089;SDS011;66028;53.558;9.950;2023-12-04T07:14:21;19.43;;;9.23;;
77089;SDS011;66028;53.558;9.950;2023-12-04T07:16:46;21.27;;;9.57;;
77089;SDS011;66028;53.558;9.950;2023-12-04T07:19:11;22.43;;;10.57;;
77089;SDS011;66028;53.558;9.950;2023-12-04T07:21:38;24.35;;;10.43;;
77089;SDS011;66028;53.558;9.950;2023-12-04T07:24:03;24.50;;;10.45;;
77089;SDS011;66028;53.558;9.950;2023-12-04T07:26:30;25.15;;;10.57;;
77089;SDS011;66028;53.558;9.950;2023-12-04T07:28:56;23.38;;;10.68;;
77089;SDS011;66028;53.558;9.950;2023-12-04T07:31:21;24.07;;;10.50;;
77089;SDS011;66028;53.558;9.950;2023-12-04T07:33:47;24.30;;;11.30;;
77089;SDS011;66028;53.558;9.950;2023-12-04T07:36:12;23.07;;;10.13;;
77089;SDS011;66028;53.558;9.950;2023-12-04T07:38:37;23.50;;;10.10;;
77089;SDS011;66028;53.558;9.950;2023-12-04T07:41:02;27.53;;;10.93;;
77089;SDS011;66028;53.558;9.950;2023-12-04T07:43:28;25.63;;;10.35;;
77089;SDS011;66028;53.558;9.950;2023-12-04T07:45:55;28.13;;;10.63;;
77089;SDS011;66028;53.558;9.950;2023-12-04T07:48:21;19.30;;;9.07;;
77089;SDS011;66028;53.558;9.950;2023-12-04T07:50:46;23.23;;;10.47;;
77089;SDS011;66028;53.558;9.950;2023-12-04T07:53:11;26.17;;;11.03;;
77089;SDS011;66028;53.558;9.950;2023-12-04T07:58:03;22.87;;;8.73;;
77089;SDS011;66028;53.558;9.950;2023-12-04T08:00:28;23.70;;;9.30;;
77089;SDS011;66028;53.558;9.950;2023-12-04T08:02:53;26.07;;;9.67;;
77089;SDS011;66028;53.558;9.950;2023-12-04T08:05:19;24.27;;;9.63;;
77089;SDS011;66028;53.558;9.950;2023-12-04T08:07:44;30.27;;;11.37;;
77089;SDS011;66028;53.558;9.950;2023-12-04T08:10:10;23.20;;;9.73;;
77089;SDS011;66028;53.558;9.950;2023-12-04T08:12:35;25.83;;;11.88;;
77089;SDS011;66028;53.558;9.950;2023-12-04T08:15:01;23.53;;;9.03;;
77089;SDS011;66028;53.558;9.950;2023-12-04T08:17:29;24.13;;;11.15;;
77089;SDS011;66028;53.558;9.950;2023-12-04T08:19:54;19.83;;;10.43;;
77089;SDS011;66028;53.558;9.950;2023-12-04T08:22:20;25.30;;;9.83;;
77089;SDS011;66028;53.558;9.950;2023-12-04T08:24:45;26.07;;;10.60;;
77089;SDS011;66028;53.558;9.950;2023-12-04T08:27:10;18.43;;;10.10;;
77089;SDS011;66028;53.558;9.950;2023-12-04T08:29:35;23.30;;;10.87;;
77089;SDS011;66028;53.558;9.950;2023-12-04T08:32:01;24.43;;;10.50;;
77089;SDS011;66028;53.558;9.950;2023-12-04T08:34:26;24.63;;;11.27;;
77089;SDS011;66028;53.558;9.950;2023-12-04T08:36:51;26.93;;;11.53;;
77089;SDS011;66028;53.558;9.950;2023-12-04T08:39:16;24.13;;;10.63;;
77089;SDS011;66028;53.558;9.950;2023-12-04T08:41:44;25.30;;;10.50;;
77089;SDS011;66028;53.558;9.950;2023-12-04T08:44:11;27.58;;;11.70;;
77089;SDS011;66028;53.558;9.950;2023-12-04T08:46:36;21.70;;;10.73;;
77089;SDS011;66028;53.558;9.950;2023-12-04T08:49:01;21.77;;;8.53;;
77089;SDS011;66028;53.558;9.950;2023-12-04T08:51:27;21.73;;;10.97;;
77089;SDS011;66028;53.558;9.950;2023-12-04T08:53:52;24.40;;;11.27;;
77089;SDS011;66028;53.558;9.950;2023-12-04T08:56:17;24.43;;;11.97;;
77089;SDS011;66028;53.558;9.950;2023-12-04T08:58:43;25.77;;;11.13;;
77089;SDS011;66028;53.558;9.950;2023-12-04T09:01:08;25.60;;;12.00;;
77089;SDS011;66028;53.558;9.950;2023-12-04T09:03:33;26.87;;;9.67;;
77089;SDS011;66028;53.558;9.950;2023-12-04T09:05:59;26.13;;;11.73;;
77089;SDS011;66028;53.558;9.950;2023-12-04T09:08:24;27.80;;;11.17;;
77089;SDS011;66028;53.558;9.950;2023-12-04T09:10:52;26.52;;;10.40;;
77089;SDS011;66028;53.558;9.950;2023-12-04T09:13:17;27.87;;;10.40;;
77089;SDS011;66028;53.558;9.950;2023-12-04T09:15:42;25.23;;;12.20;;
77089;SDS011;66028;53.558;9.950;2023-12-04T09:18:08;24.90;;;11.07;;
77089;SDS011;66028;53.558;9.950;2023-12-04T09:20:33;23.15;;;11.65;;
77089;SDS011;66028;53.558;9.950;2023-12-04T09:22:59;27.08;;;10.77;;
77089;SDS011;66028;53.558;9.950;2023-12-04T09:25:24;23.10;;;10.20;;
77089;SDS011;66028;53.558;9.950;2023-12-04T09:27:49;22.50;;;10.63;;
77089;SDS011;66028;53.558;9.950;2023-12-04T09:30:14;25.63;;;10.97;;
77089;SDS011;66028;53.558;9.950;2023-12-04T09:32:40;26.13;;;11.57;;
77089;SDS011;66028;53.558;9.950;2023-12-04T09:35:06;23.85;;;9.75;;
77089;SDS011;66028;53.558;9.950;2023-12-04T09:37:31;22.90;;;9.98;;
77089;SDS011;66028;53.558;9.950;2023-12-04T09:39:57;22.77;;;10.83;;
77089;SDS011;66028;53.558;9.950;2023-12-04T09:42:22;22.97;;;11.20;;
77089;SDS011;66028;53.558;9.950;2023-12-04T09:44:48;21.48;;;9.93;;
77089;SDS011;66028;53.558;9.950;2023-12-04T09:47:17;20.75;;;9.60;;
77089;SDS011;66028;53.558;9.950;2023-12-04T09:49:43;23.63;;;10.85;;
77089;SDS011;66028;53.558;9.950;2023-12-04T09:52:10;21.05;;;9.35;;
77089;SDS011;66028;53.558;9.950;2023-12-04T09:54:36;21.77;;;10.93;;
77089;SDS011;66028;53.558;9.950;2023-12-04T09:57:03;24.60;;;9.63;;
77089;SDS011;66028;53.558;9.950;2023-12-04T09:59:29;24.33;;;10.88;;
77089;SDS011;66028;53.558;9.950;2023-12-04T10:01:56;20.77;;;9.38;;
77089;SDS011;66028;53.558;9.950;2023-12-04T10:04:22;18.13;;;10.52;;
77089;SDS011;66028;53.558;9.950;2023-12-04T10:06:49;24.70;;;11.15;;
77089;SDS011;66028;53.558;9.950;2023-12-04T10:09:16;24.30;;;11.15;;
77089;SDS011;66028;53.558;9.950;2023-12-04T10:11:44;20.38;;;9.88;;
77089;SDS011;66028;53.558;9.950;2023-12-04T10:14:14;22.20;;;10.93;;
77089;SDS011;66028;53.558;9.950;2023-12-04T10:16:40;22.98;;;10.50;;
77089;SDS011;66028;53.558;9.950;2023-12-04T10:19:19;26.47;;;10.83;;
77089;SDS011;66028;53.558;9.950;2023-12-04T10:21:47;21.17;;;9.60;;
77089;SDS011;66028;53.558;9.950;2023-12-04T10:24:26;23.20;;;10.13;;
77089;SDS011;66028;53.558;9.950;2023-12-04T10:27:07;22.20;;;9.85;;
77089;SDS011;66028;53.558;9.950;2023-12-04T10:29:49;23.02;;;9.98;;
77089;SDS011;66028;53.558;9.950;2023-12-04T10:32:20;23.05;;;9.38;;
77089;SDS011;66028;53.558;9.950;2023-12-04T10:34:46;23.95;;;11.52;;
77089;SDS011;66028;53.558;9.950;2023-12-04T10:37:12;20.90;;;9.13;;
77089;SDS011;66028;53.558;9.950;2023-12-04T10:39:45;20.45;;;9.95;;
77089;SDS011;66028;53.558;9.950;2023-12-04T10:42:12;23.17;;;9.70;;
77089;SDS011;66028;53.558;9.950;2023-12-04T10:44:37;20.80;;;10.43;;
77089;SDS011;66028;53.558;9.950;2023-12-04T10:47:05;19.75;;;8.75;;
77089;SDS011;66028;53.558;9.950;2023-12-04T10:51:57;19.60;;;9.13;;
77089;SDS011;66028;53.558;9.950;2023-12-04T10:54:26;20.40;;;10.02;;
77089;SDS011;66028;53.558;9.950;2023-12-04T10:56:52;23.08;;;10.93;;
77089;SDS011;66028;53.558;9.950;2023-12-04T10:59:25;21.23;;;9.98;;
77089;SDS011;66028;53.558;9.950;2023-12-04T11:01:52;19.65;;;8.95;;
77089;SDS011;66028;53.558;9.950;2023-12-04T11:04:20;23.13;;;10.10;;
77089;SDS011;66028;53.558;9.950;2023-12-04T11:06:49;21.88;;;10.77;;
77089;SDS011;66028;53.558;9.950;2023-12-04T11:09:18;19.65;;;9.82;;
77089;SDS011;66028;53.558;9.950;2023-12-04T11:11:46;20.48;;;9.23;;
77089;SDS011;66028;53.558;9.950;2023-12-04T11:14:16;24.27;;;10.70;;
77089;SDS011;66028;53.558;9.950;2023-12-04T11:16:48;21.92;;;10.57;;
77089;SDS011;66028;53.558;9.950;2023-12-04T11:22:03;22.73;;;9.98;;
77089;SDS011;66028;53.558;9.950;2023-12-04T11:24:30;21.13;;;9.95;;
77089;SDS011;66028;53.558;9.950;2023-12-04T11:26:56;20.13;;;9.82;;
77089;SDS011;66028;53.558;9.950;2023-12-04T11:29:22;20.00;;;9.38;;
77089;SDS011;66028;53.558;9.950;2023-12-04T11:34:14;22.07;;;9.40;;
77089;SDS011;66028;53.558;9.950;2023-12-04T11:36:39;23.55;;;10.05;;
77089;SDS011;66028;53.558;9.950;2023-12-04T11:39:08;18.97;;;9.57;;
77089;SDS011;66028;53.558;9.950;2023-12-04T11:41:35;25.65;;;10.27;;
77089;SDS011;66028;53.558;9.950;2023-12-04T11:44:01;21.25;;;10.75;;
77089;SDS011;66028;53.558;9.950;2023-12-04T11:46:28;19.10;;;10.38;;
77089;SDS011;66028;53.558;9.950;2023-12-04T11:48:54;19.45;;;9.50;;
77089;SDS011;66028;53.558;9.950;2023-12-04T11:54:04;19.27;;;9.80;;
77089;SDS011;66028;53.558;9.950;2023-12-04T11:56:32;17.70;;;8.40;;
77089;SDS011;66028;53.558;9.950;2023-12-04T11:59:04;19.87;;;10.47;;
77089;SDS011;66028;53.558;9.950;2023-12-04T12:01:33;19.75;;;10.35;;
77089;SDS011;66028;53.558;9.950;2023-12-04T12:04:01;18.00;;;8.82;;
77089;SDS011;66028;53.558;9.950;2023-12-04T12:06:27;22.63;;;9.20;;
77089;SDS011;66028;53.558;9.950;2023-12-04T12:08:52;20.17;;;9.40;;
77089;SDS011;66028;53.558;9.950;2023-12-04T12:11:19;17.55;;;8.50;;
77089;SDS011;66028;53.558;9.950;2023-12-04T12:13:44;21.57;;;10.30;;
77089;SDS011;66028;53.558;9.950;2023-12-04T12:16:10;23.10;;;10.65;;
77089;SDS011;66028;53.558;9.950;2023-12-04T12:18:36;17.40;;;8.27;;
77089;SDS011;66028;53.558;9.950;2023-12-04T12:21:01;21.40;;;8.95;;
77089;SDS011;66028;53.558;9.950;2023-12-04T12:23:27;13.32;;;6.72;;
77089;SDS011;66028;53.558;9.950;2023-12-04T12:25:52;20.10;;;8.70;;
77089;SDS011;66028;53.558;9.950;2023-12-04T12:28:18;13.18;;;7.15;;
77089;SDS011;66028;53.558;9.950;2023-12-04T12:30:44;18.87;;;9.23;;
77089;SDS011;66028;53.558;9.950;2023-12-04T12:33:12;17.73;;;9.07;;
77089;SDS011;66028;53.558;9.950;2023-12-04T12:35:38;19.27;;;8.82;;
77089;SDS011;66028;53.558;9.950;2023-12-04T12:38:03;19.27;;;9.60;;
77089;SDS011;66028;53.558;9.950;2023-12-04T12:40:29;18.95;;;9.55;;
77089;SDS011;66028;53.558;9.950;2023-12-04T12:43:03;17.67;;;8.98;;
77089;SDS011;66028;53.558;9.950;2023-12-04T12:45:44;18.63;;;7.30;;
77089;SDS011;66028;53.558;9.950;2023-12-04T12:48:16;18.92;;;9.73;;
77089;SDS011;66028;53.558;9.950;2023-12-04T12:50:42;18.83;;;9.07;;
77089;SDS011;66028;53.558;9.950;2023-12-04T12:53:10;22.33;;;9.55;;
77089;SDS011;66028;53.558;9.950;2023-12-04T12:55:43;17.00;;;8.57;;
77089;SDS011;66028;53.558;9.950;2023-12-04T12:58:09;19.92;;;9.30;;
77089;SDS011;66028;53.558;9.950;2023-12-04T13:00:45;18.60;;;9.48;;
77089;SDS011;66028;53.558;9.950;2023-12-04T13:03:15;16.98;;;8.98;;
77089;SDS011;66028;53.558;9.950;2023-12-04T13:05:43;20.85;;;8.65;;
77089;SDS011;66028;53.558;9.950;2023-12-04T13:08:08;17.60;;;8.95;;
77089;SDS011;66028;53.558;9.950;2023-12-04T13:10:36;19.20;;;8.55;;
77089;SDS011;66028;53.558;9.950;2023-12-04T13:13:01;16.35;;;8.60;;
77089;SDS011;66028;53.558;9.950;2023-12-04T13:15:27;16.77;;;7.45;;
77089;SDS011;66028;53.558;9.950;2023-12-04T13:17:52;17.83;;;9.00;;
77089;SDS011;66028;53.558;9.950;2023-12-04T13:20:17;19.97;;;9.77;;
77089;SDS011;66028;53.558;9.950;2023-12-04T13:22:43;21.17;;;9.33;;
77089;SDS011;66028;53.558;9.950;2023-12-04T13:25:08;17.75;;;8.85;;
77089;SDS011;66028;53.558;9.950;2023-12-04T13:27:35;18.15;;;9.40;;
77089;SDS011;66028;53.558;9.950;2023-12-04T13:30:03;20.00;;;9.32;;
77089;SDS011;66028;53.558;9.950;2023-12-04T13:32:35;18.63;;;8.75;;
77089;SDS011;66028;53.558;9.950;2023-12-04T13:35:04;15.75;;;8.43;;
77089;SDS011;66028;53.558;9.950;2023-12-04T13:37:33;17.48;;;8.60;;
77089;SDS011;66028;53.558;9.950;2023-12-04T13:40:01;16.85;;;9.00;;
77089;SDS011;66028;53.558;9.950;2023-12-04T13:42:31;15.20;;;7.80;;
77089;SDS011;66028;53.558;9.950;2023-12-04T13:45:15;17.52;;;8.30;;
77089;SDS011;66028;53.558;9.950;2023-12-04T13:47:40;18.80;;;9.43;;
77089;SDS011;66028;53.558;9.950;2023-12-04T13:50:06;19.33;;;8.33;;
77089;SDS011;66028;53.558;9.950;2023-12-04T13:52:35;15.38;;;8.13;;
77089;SDS011;66028;53.558;9.950;2023-12-04T13:55:01;16.42;;;9.25;;
77089;SDS011;66028;53.558;9.950;2023-12-04T13:57:33;19.00;;;8.82;;
77089;SDS011;66028;53.558;9.950;2023-12-04T14:00:01;17.20;;;8.20;;
77089;SDS011;66028;53.558;9.950;2023-12-04T14:02:27;17.83;;;8.52;;
77089;SDS011;66028;53.558;9.950;2023-12-04T14:04:52;17.02;;;9.30;;
77089;SDS011;66028;53.558;9.950;2023-12-04T14:07:18;18.42;;;8.82;;
77089;SDS011;66028;53.558;9.950;2023-12-04T14:09:43;16.95;;;7.97;;
77089;SDS011;66028;53.558;9.950;2023-12-04T14:12:12;19.35;;;7.97;;
77089;SDS011;66028;53.558;9.950;2023-12-04T14:14:39;16.55;;;7.82;;
77089;SDS011;66028;53.558;9.950;2023-12-04T14:17:04;15.57;;;8.23;;
77089;SDS011;66028;53.558;9.950;2023-12-04T14:19:30;17.27;;;8.35;;
77089;SDS011;66028;53.558;9.950;2023-12-04T14:21:55;21.30;;;7.90;;
77089;SDS011;66028;53.558;9.950;2023-12-04T14:24:21;15.90;;;7.45;;
77089;SDS011;66028;53.558;9.950;2023-12-04T14:26:47;21.98;;;9.27;;
77089;SDS011;66028;53.558;9.950;2023-12-04T14:29:13;17.73;;;8.38;;
77089;SDS011;66028;53.558;9.950;2023-12-04T14:31:38;16.43;;;7.93;;
77089;SDS011;66028;53.558;9.950;2023-12-04T14:34:04;16.27;;;7.47;;
77089;SDS011;66028;53.558;9.950;2023-12-04T14:36:29;14.73;;;7.90;;